sensor_id;sensor_type;location;lat;lon;timestamp;pressure;altitude;pressure_sealevel;temperature;humidity
21129;BME280;10722;51.910;8.352;2024-02-23T00:01:52;97389.06;;;7.90;71.97
21129;BME280;10722;51.910;8.352;2024-02-23T00:04:37;97471.72;;;7.78;72.68
21129;BME280;10722;51.910;8.352;2024-02-23T00:07:23;97465.03;;;7.71;73.08
21129;BME280;10722;51.910;8.352;2024-02-23T00:10:08;97484.47;;;7.45;74.72
21129;BME280;10722;51.910;8.352;2024-02-23T00:12:54;97544.66;;;7.36;75.50
21129;BME280;10722;51.910;8.352;2024-02-23T00:15:39;97600.59;;;7.27;76.40
21129;BME280;10722;51.910;8.352;2024-02-23T00:18:23;97594.09;;;7.07;76.75
21129;BME280;10722;51.910;8.352;2024-02-23T00:21:09;97611.25;;;7.07;76.87
21129;BME280;10722;51.910;8.352;2024-02-23T00:23:54;97654.28;;;6.94;77.61
21129;BME280;10722;51.910;8.352;2024-02-23T00:26:38;97652.59;;;6.93;78.35
21129;BME280;10722;51.910;8.352;2024-02-23T00:29:23;97667.38;;;6.80;78.92
21129;BME280;10722;51.910;8.352;2024-02-23T00:32:09;97709.47;;;6.73;80.34
21129;BME280;10722;51.910;8.352;2024-02-23T00:34:57;97756.75;;;6.60;81.20
21129;BME280;10722;51.910;8.352;2024-02-23T00:37:42;97779.91;;;6.55;82.20
21129;BME280;10722;51.910;8.352;2024-02-23T00:40:27;97785.13;;;6.49;82.87
21129;BME280;10722;51.910;8.352;2024-02-23T00:43:12;97840.91;;;6.38;83.57
21129;BME280;10722;51.910;8.352;2024-02-23T00:45:57;97829.00;;;6.31;83.96
21129;BME280;10722;51.910;8.352;2024-02-23T00:48:42;97874.31;;;6.39;84.45
21129;BME280;10722;51.910;8.352;2024-02-23T00:51:27;97880.34;;;6.31;84.67
21129;BME280;10722;51.910;8.352;2024-02-23T00:54:12;97887.41;;;6.13;84.60
21129;BME280;10722;51.910;8.352;2024-02-23T00:56:56;97908.13;;;5.95;85.75
21129;BME280;10722;51.910;8.352;2024-02-23T00:59:42;97966.25;;;5.93;87.21
21129;BME280;10722;51.910;8.352;2024-02-23T01:02:27;97964.66;;;5.76;87.43
21129;BME280;10722;51.910;8.352;2024-02-23T01:05:13;97988.69;;;5.63;88.19
21129;BME280;10722;51.910;8.352;2024-02-23T01:07:58;97987.03;;;5.57;88.36
21129;BME280;10722;51.910;8.352;2024-02-23T01:10:44;98006.69;;;5.58;88.50
21129;BME280;10722;51.910;8.352;2024-02-23T01:13:29;98008.44;;;5.49;88.67
21129;BME280;10722;51.910;8.352;2024-02-23T01:16:15;98014.41;;;5.54;89.00
21129;BME280;10722;51.910;8.352;2024-02-23T01:19:00;98025.44;;;5.65;89.49
21129;BME280;10722;51.910;8.352;2024-02-23T01:21:45;98068.28;;;5.55;89.09
21129;BME280;10722;51.910;8.352;2024-02-23T01:24:30;98068.28;;;5.46;89.92
21129;BME280;10722;51.910;8.352;2024-02-23T01:27:15;98087.09;;;5.48;89.88
21129;BME280;10722;51.910;8.352;2024-02-23T01:30:00;98075.16;;;5.44;90.21
21129;BME280;10722;51.910;8.352;2024-02-23T01:32:46;98094.88;;;5.28;89.64
21129;BME280;10722;51.910;8.352;2024-02-23T01:35:31;98053.75;;;5.50;89.29
21129;BME280;10722;51.910;8.352;2024-02-23T01:38:17;98073.44;;;5.45;88.96
21129;BME280;10722;51.910;8.352;2024-02-23T01:41:02;98064.03;;;5.40;89.10
21129;BME280;10722;51.910;8.352;2024-02-23T01:43:47;98095.72;;;5.29;89.86
21129;BME280;10722;51.910;8.352;2024-02-23T01:46:32;98105.13;;;5.28;89.92
21129;BME280;10722;51.910;8.352;2024-02-23T01:49:17;98099.16;;;5.28;90.16
21129;BME280;10722;51.910;8.352;2024-02-23T01:52:03;98106.00;;;5.24;89.84
21129;BME280;10722;51.910;8.352;2024-02-23T01:54:50;98111.97;;;5.25;89.28
21129;BME280;10722;51.910;8.352;2024-02-23T01:57:36;98104.25;;;5.31;88.91
21129;BME280;10722;51.910;8.352;2024-02-23T02:00:35;98086.34;;;5.23;88.52
21129;BME280;10722;51.910;8.352;2024-02-23T02:03:21;98098.31;;;5.20;88.42
21129;BME280;10722;51.910;8.352;2024-02-23T02:06:06;98093.19;;;5.12;88.39
21129;BME280;10722;51.910;8.352;2024-02-23T02:08:53;98088.94;;;5.11;88.47
21129;BME280;10722;51.910;8.352;2024-02-23T02:11:48;98088.94;;;5.11;88.30
21129;BME280;10722;51.910;8.352;2024-02-23T02:14:33;98091.50;;;5.15;88.18
21129;BME280;10722;51.910;8.352;2024-02-23T02:17:18;98112.00;;;5.11;88.54
21129;BME280;10722;51.910;8.352;2024-02-23T02:20:04;98129.97;;;5.12;88.66
21129;BME280;10722;51.910;8.352;2024-02-23T02:22:49;98117.13;;;5.11;88.49
21129;BME280;10722;51.910;8.352;2024-02-23T02:25:34;98108.59;;;5.18;88.42
21129;BME280;10722;51.910;8.352;2024-02-23T02:28:19;98117.97;;;5.27;87.80
21129;BME280;10722;51.910;8.352;2024-02-23T02:31:04;98117.09;;;5.23;87.45
21129;BME280;10722;51.910;8.352;2024-02-23T02:33:49;98100.84;;;5.26;87.14
21129;BME280;10722;51.910;8.352;2024-02-23T02:36:34;98110.28;;;5.17;87.23
21129;BME280;10722;51.910;8.352;2024-02-23T02:39:19;98110.28;;;5.22;86.61
21129;BME280;10722;51.910;8.352;2024-02-23T02:42:04;98097.41;;;5.31;85.96
21129;BME280;10722;51.910;8.352;2024-02-23T02:44:49;98094.00;;;5.31;85.83
21129;BME280;10722;51.910;8.352;2024-02-23T02:47:35;98094.03;;;5.28;85.28
21129;BME280;10722;51.910;8.352;2024-02-23T02:50:20;98094.84;;;5.34;85.03
21129;BME280;10722;51.910;8.352;2024-02-23T02:53:05;98094.00;;;5.35;84.79
21129;BME280;10722;51.910;8.352;2024-02-23T02:55:50;98088.88;;;5.34;84.53
21129;BME280;10722;51.910;8.352;2024-02-23T02:58:35;98064.06;;;5.42;83.94
21129;BME280;10722;51.910;8.352;2024-02-23T03:01:20;98093.13;;;5.41;83.79
21129;BME280;10722;51.910;8.352;2024-02-23T03:04:05;98065.72;;;5.46;83.51
21129;BME280;10722;51.910;8.352;2024-02-23T03:06:51;98075.13;;;5.46;83.33
21129;BME280;10722;51.910;8.352;2024-02-23T03:09:36;98072.53;;;5.52;83.34
21129;BME280;10722;51.910;8.352;2024-02-23T03:12:22;98077.69;;;5.53;83.13
21129;BME280;10722;51.910;8.352;2024-02-23T03:15:06;98080.25;;;5.53;83.20
21129;BME280;10722;51.910;8.352;2024-02-23T03:17:52;98083.66;;;5.55;83.12
21129;BME280;10722;51.910;8.352;2024-02-23T03:20:37;98108.44;;;5.61;83.33
21129;BME280;10722;51.910;8.352;2024-02-23T03:23:22;98101.56;;;5.63;83.05
21129;BME280;10722;51.910;8.352;2024-02-23T03:26:07;98116.97;;;5.58;83.45
21129;BME280;10722;51.910;8.352;2024-02-23T03:28:53;98079.34;;;5.64;82.61
21129;BME280;10722;51.910;8.352;2024-02-23T03:31:38;98072.47;;;5.70;82.36
21129;BME280;10722;51.910;8.352;2024-02-23T03:34:23;98080.19;;;5.67;82.11
21129;BME280;10722;51.910;8.352;2024-02-23T03:37:08;98074.16;;;5.71;81.60
21129;BME280;10722;51.910;8.352;2024-02-23T03:39:53;98072.50;;;5.64;81.24
21129;BME280;10722;51.910;8.352;2024-02-23T03:42:38;98057.91;;;5.74;80.65
21129;BME280;10722;51.910;8.352;2024-02-23T03:45:23;98049.38;;;5.72;80.54
21129;BME280;10722;51.910;8.352;2024-02-23T03:48:08;98052.81;;;5.65;80.54
21129;BME280;10722;51.910;8.352;2024-02-23T03:50:53;98046.00;;;5.64;80.77
21129;BME280;10722;51.910;8.352;2024-02-23T03:53:37;98062.25;;;5.59;80.31
21129;BME280;10722;51.910;8.352;2024-02-23T03:56:22;98042.56;;;5.66;79.98
21129;BME280;10722;51.910;8.352;2024-02-23T03:59:09;98054.59;;;5.53;80.25
21129;BME280;10722;51.910;8.352;2024-02-23T04:01:54;98048.53;;;5.65;79.72
21129;BME280;10722;51.910;8.352;2024-02-23T04:04:39;98056.25;;;5.64;79.45
21129;BME280;10722;51.910;8.352;2024-02-23T04:07:24;98057.97;;;5.61;79.38
21129;BME280;10722;51.910;8.352;2024-02-23T04:10:10;98049.41;;;5.64;79.04
21129;BME280;10722;51.910;8.352;2024-02-23T04:12:55;98025.50;;;5.60;78.69
21129;BME280;10722;51.910;8.352;2024-02-23T04:15:40;98025.47;;;5.67;78.18
21129;BME280;10722;51.910;8.352;2024-02-23T04:18:25;98022.13;;;5.52;78.64
21129;BME280;10722;51.910;8.352;2024-02-23T04:21:09;98047.78;;;5.49;78.73
21129;BME280;10722;51.910;8.352;2024-02-23T04:23:55;98047.78;;;5.49;78.83
21129;BME280;10722;51.910;8.352;2024-02-23T04:26:40;98058.91;;;5.50;79.12
21129;BME280;10722;51.910;8.352;2024-02-23T04:29:25;98056.34;;;5.42;79.31
21129;BME280;10722;51.910;8.352;2024-02-23T04:32:10;98065.72;;;5.48;79.52
21129;BME280;10722;51.910;8.352;2024-02-23T04:34:55;98077.75;;;5.38;79.70
21129;BME280;10722;51.910;8.352;2024-02-23T04:37:43;98097.38;;;5.44;79.74
21129;BME280;10722;51.910;8.352;2024-02-23T04:40:29;98114.47;;;5.45;79.78
21129;BME280;10722;51.910;8.352;2024-02-23T04:43:14;98112.75;;;5.42;79.79
21129;BME280;10722;51.910;8.352;2024-02-23T04:45:58;98118.75;;;5.41;79.85
21129;BME280;10722;51.910;8.352;2024-02-23T04:48:43;98123.06;;;5.36;79.95
21129;BME280;10722;51.910;8.352;2024-02-23T04:51:28;98146.94;;;5.43;79.79
21129;BME280;10722;51.910;8.352;2024-02-23T04:54:13;98127.28;;;5.48;79.85
21129;BME280;10722;51.910;8.352;2024-02-23T04:56:58;98139.25;;;5.50;79.82
21129;BME280;10722;51.910;8.352;2024-02-23T04:59:43;98141.81;;;5.47;79.78
21129;BME280;10722;51.910;8.352;2024-02-23T05:02:28;98159.75;;;5.50;79.78
21129;BME280;10722;51.910;8.352;2024-02-23T05:05:13;98164.88;;;5.46;80.03
21129;BME280;10722;51.910;8.352;2024-02-23T05:07:58;98156.34;;;5.40;80.15
21129;BME280;10722;51.910;8.352;2024-02-23T05:10:43;98186.28;;;5.37;80.55
21129;BME280;10722;51.910;8.352;2024-02-23T05:13:28;98189.69;;;5.40;80.67
21129;BME280;10722;51.910;8.352;2024-02-23T05:16:14;98193.13;;;5.32;80.88
21129;BME280;10722;51.910;8.352;2024-02-23T05:18:59;98183.69;;;5.51;80.25
21129;BME280;10722;51.910;8.352;2024-02-23T05:21:44;98179.41;;;5.40;80.46
21129;BME280;10722;51.910;8.352;2024-02-23T05:24:29;98174.31;;;5.39;80.52
21129;BME280;10722;51.910;8.352;2024-02-23T05:27:14;98180.28;;;5.35;80.46
21129;BME280;10722;51.910;8.352;2024-02-23T05:29:59;98186.31;;;5.32;80.74
21129;BME280;10722;51.910;8.352;2024-02-23T05:32:44;98197.38;;;5.37;80.50
21129;BME280;10722;51.910;8.352;2024-02-23T05:35:29;98174.28;;;5.48;80.34
21129;BME280;10722;51.910;8.352;2024-02-23T05:38:15;98194.81;;;5.45;80.60
21129;BME280;10722;51.910;8.352;2024-02-23T05:41:00;98177.69;;;5.52;80.16
21129;BME280;10722;51.910;8.352;2024-02-23T05:43:45;98188.81;;;5.51;80.05
21129;BME280;10722;51.910;8.352;2024-02-23T05:46:30;98198.22;;;5.50;80.30
21129;BME280;10722;51.910;8.352;2024-02-23T05:49:15;98206.78;;;5.43;80.31
21129;BME280;10722;51.910;8.352;2024-02-23T05:52:00;98198.19;;;5.52;79.93
21129;BME280;10722;51.910;8.352;2024-02-23T05:54:45;98195.63;;;5.52;79.59
21129;BME280;10722;51.910;8.352;2024-02-23T05:57:33;98204.19;;;5.51;79.85
21129;BME280;10722;51.910;8.352;2024-02-23T06:00:18;98193.06;;;5.52;79.39
21129;BME280;10722;51.910;8.352;2024-02-23T06:03:03;98179.41;;;5.53;79.23
21129;BME280;10722;51.910;8.352;2024-02-23T06:05:49;98196.50;;;5.54;79.22
21129;BME280;10722;51.910;8.352;2024-02-23T06:08:35;98187.94;;;5.53;79.00
21129;BME280;10722;51.910;8.352;2024-02-23T06:11:20;98189.66;;;5.56;79.00
21129;BME280;10722;51.910;8.352;2024-02-23T06:14:05;98201.66;;;5.52;79.34
21129;BME280;10722;51.910;8.352;2024-02-23T06:16:51;98178.53;;;5.54;79.41
21129;BME280;10722;51.910;8.352;2024-02-23T06:19:36;98187.09;;;5.56;78.68
21129;BME280;10722;51.910;8.352;2024-02-23T06:22:21;98184.53;;;5.54;78.74
21129;BME280;10722;51.910;8.352;2024-02-23T06:25:06;98194.81;;;5.45;78.66
21129;BME280;10722;51.910;8.352;2024-02-23T06:27:51;98189.66;;;5.53;78.73
21129;BME280;10722;51.910;8.352;2024-02-23T06:30:37;98211.91;;;5.48;79.04
21129;BME280;10722;51.910;8.352;2024-02-23T06:33:22;98208.47;;;5.49;78.76
21129;BME280;10722;51.910;8.352;2024-02-23T06:36:07;98205.06;;;5.50;78.83
21129;BME280;10722;51.910;8.352;2024-02-23T06:38:52;98207.66;;;5.47;78.41
21129;BME280;10722;51.910;8.352;2024-02-23T06:41:38;98208.47;;;5.50;78.56
21129;BME280;10722;51.910;8.352;2024-02-23T06:44:23;98212.75;;;5.40;78.61
21129;BME280;10722;51.910;8.352;2024-02-23T06:47:08;98228.16;;;5.44;79.02
21129;BME280;10722;51.910;8.352;2024-02-23T06:49:53;98223.91;;;5.38;79.21
21129;BME280;10722;51.910;8.352;2024-02-23T06:52:39;98232.44;;;5.34;79.37
21129;BME280;10722;51.910;8.352;2024-02-23T06:55:24;98235.88;;;5.36;78.89
21129;BME280;10722;51.910;8.352;2024-02-23T06:58:08;98240.13;;;5.28;79.65
21129;BME280;10722;51.910;8.352;2024-02-23T07:00:53;98245.25;;;5.29;79.41
21129;BME280;10722;51.910;8.352;2024-02-23T07:03:38;98258.94;;;5.25;79.34
21129;BME280;10722;51.910;8.352;2024-02-23T07:06:24;98257.25;;;5.21;79.46
21129;BME280;10722;51.910;8.352;2024-02-23T07:09:09;98265.75;;;5.26;79.51
21129;BME280;10722;51.910;8.352;2024-02-23T07:11:54;98273.44;;;5.26;79.63
21129;BME280;10722;51.910;8.352;2024-02-23T07:14:39;98272.63;;;5.33;79.51
21129;BME280;10722;51.910;8.352;2024-02-23T07:17:24;98270.06;;;5.30;79.51
21129;BME280;10722;51.910;8.352;2024-02-23T07:20:10;98258.06;;;5.43;79.25
21129;BME280;10722;51.910;8.352;2024-02-23T07:22:55;98247.84;;;5.35;78.99
21129;BME280;10722;51.910;8.352;2024-02-23T07:25:40;98258.06;;;5.42;79.05
21129;BME280;10722;51.910;8.352;2024-02-23T07:28:25;98269.19;;;5.47;79.47
21129;BME280;10722;51.910;8.352;2024-02-23T07:31:10;98262.31;;;5.49;78.57
21129;BME280;10722;51.910;8.352;2024-02-23T07:33:55;98252.06;;;5.43;78.86
21129;BME280;10722;51.910;8.352;2024-02-23T07:36:41;98242.66;;;5.46;78.74
21129;BME280;10722;51.910;8.352;2024-02-23T07:39:25;98227.31;;;5.49;78.40
21129;BME280;10722;51.910;8.352;2024-02-23T07:42:10;98244.38;;;5.53;78.46
21129;BME280;10722;51.910;8.352;2024-02-23T07:44:56;98220.44;;;5.53;78.26
21129;BME280;10722;51.910;8.352;2024-02-23T07:47:41;98219.56;;;5.57;78.00
21129;BME280;10722;51.910;8.352;2024-02-23T07:50:26;98217.84;;;5.62;77.78
21129;BME280;10722;51.910;8.352;2024-02-23T07:53:12;98217.81;;;5.68;77.65
21129;BME280;10722;51.910;8.352;2024-02-23T07:55:58;98221.22;;;5.73;77.98
21129;BME280;10722;51.910;8.352;2024-02-23T07:58:42;98213.56;;;5.72;77.53
21129;BME280;10722;51.910;8.352;2024-02-23T08:01:28;98215.22;;;5.79;77.77
21129;BME280;10722;51.910;8.352;2024-02-23T08:04:13;98204.13;;;5.83;77.13
21129;BME280;10722;51.910;8.352;2024-02-23T08:06:59;98216.91;;;5.88;77.28
21129;BME280;10722;51.910;8.352;2024-02-23T08:09:44;98198.94;;;5.88;76.92
21129;BME280;10722;51.910;8.352;2024-02-23T08:12:29;98203.22;;;5.93;76.87
21129;BME280;10722;51.910;8.352;2024-02-23T08:15:14;98189.56;;;5.94;76.27
21129;BME280;10722;51.910;8.352;2024-02-23T08:17:59;98195.50;;;5.99;76.04
21129;BME280;10722;51.910;8.352;2024-02-23T08:20:44;98212.56;;;6.13;76.27
21129;BME280;10722;51.910;8.352;2024-02-23T08:23:30;98209.13;;;6.15;76.05
21129;BME280;10722;51.910;8.352;2024-02-23T08:26:15;98203.16;;;6.12;76.02
21129;BME280;10722;51.910;8.352;2024-02-23T08:29:00;98221.03;;;6.32;75.91
21129;BME280;10722;51.910;8.352;2024-02-23T08:31:46;98238.97;;;6.35;75.54
21129;BME280;10722;51.910;8.352;2024-02-23T08:34:31;98236.38;;;6.36;75.33
21129;BME280;10722;51.910;8.352;2024-02-23T08:37:16;98215.88;;;6.32;74.98
21129;BME280;10722;51.910;8.352;2024-02-23T08:40:01;98219.31;;;6.34;75.01
21129;BME280;10722;51.910;8.352;2024-02-23T08:42:46;98226.19;;;6.25;74.97
21129;BME280;10722;51.910;8.352;2024-02-23T08:45:31;98237.38;;;6.15;75.13
21129;BME280;10722;51.910;8.352;2024-02-23T08:48:16;98217.66;;;6.20;74.77
21129;BME280;10722;51.910;8.352;2024-02-23T08:51:02;98230.47;;;6.28;75.15
21129;BME280;10722;51.910;8.352;2024-02-23T08:53:47;98254.38;;;6.35;74.95
21129;BME280;10722;51.910;8.352;2024-02-23T08:56:36;98229.50;;;6.44;75.20
21129;BME280;10722;51.910;8.352;2024-02-23T08:59:22;98256.00;;;6.49;74.93
21129;BME280;10722;51.910;8.352;2024-02-23T09:02:07;98244.09;;;6.41;74.74
21129;BME280;10722;51.910;8.352;2024-02-23T09:04:52;98241.53;;;6.38;74.44
21129;BME280;10722;51.910;8.352;2024-02-23T09:07:37;98261.16;;;6.51;74.99
21129;BME280;10722;51.910;8.352;2024-02-23T09:10:22;98267.09;;;6.61;74.37
21129;BME280;10722;51.910;8.352;2024-02-23T09:13:07;98249.13;;;6.53;74.58
21129;BME280;10722;51.910;8.352;2024-02-23T09:15:52;98256.09;;;6.37;74.79
21129;BME280;10722;51.910;8.352;2024-02-23T09:18:37;98275.75;;;6.46;75.04
21129;BME280;10722;51.910;8.352;2024-02-23T09:21:22;98253.50;;;6.39;75.12
21129;BME280;10722;51.910;8.352;2024-02-23T09:24:08;98263.75;;;6.45;74.67
21129;BME280;10722;51.910;8.352;2024-02-23T09:26:53;98246.59;;;6.56;74.37
21129;BME280;10722;51.910;8.352;2024-02-23T09:29:37;98254.25;;;6.59;74.11
21129;BME280;10722;51.910;8.352;2024-02-23T09:32:23;98228.56;;;6.58;73.85
21129;BME280;10722;51.910;8.352;2024-02-23T09:35:08;98245.69;;;6.62;74.13
21129;BME280;10722;51.910;8.352;2024-02-23T09:37:53;98249.09;;;6.62;73.58
21129;BME280;10722;51.910;8.352;2024-02-23T09:40:38;98230.25;;;6.65;73.48
21129;BME280;10722;51.910;8.352;2024-02-23T09:43:29;98228.53;;;6.61;73.31
21129;BME280;10722;51.910;8.352;2024-02-23T09:46:15;98220.81;;;6.65;73.00
21129;BME280;10722;51.910;8.352;2024-02-23T09:49:01;98233.63;;;6.70;72.97
21129;BME280;10722;51.910;8.352;2024-02-23T09:51:48;98213.06;;;6.71;72.42
21129;BME280;10722;51.910;8.352;2024-02-23T09:54:34;98227.56;;;6.82;72.84
21129;BME280;10722;51.910;8.352;2024-02-23T09:57:19;98222.44;;;6.79;72.47
21129;BME280;10722;51.910;8.352;2024-02-23T10:00:06;98230.13;;;6.80;72.57
21129;BME280;10722;51.910;8.352;2024-02-23T10:02:53;98221.56;;;6.78;72.49
21129;BME280;10722;51.910;8.352;2024-02-23T10:05:38;98225.84;;;6.82;72.29
21129;BME280;10722;51.910;8.352;2024-02-23T10:08:28;98204.41;;;6.83;71.85
21129;BME280;10722;51.910;8.352;2024-02-23T10:11:13;98184.66;;;6.90;71.11
21129;BME280;10722;51.910;8.352;2024-02-23T10:14:01;98182.09;;;6.87;70.85
21129;BME280;10722;51.910;8.352;2024-02-23T10:16:47;98190.66;;;6.89;70.88
21129;BME280;10722;51.910;8.352;2024-02-23T10:19:33;98160.66;;;6.91;70.47
21129;BME280;10722;51.910;8.352;2024-02-23T10:22:18;98163.19;;;6.94;70.40
21129;BME280;10722;51.910;8.352;2024-02-23T10:25:04;98195.75;;;6.95;70.50
21129;BME280;10722;51.910;8.352;2024-02-23T10:27:49;98202.53;;;7.02;70.62
21129;BME280;10722;51.910;8.352;2024-02-23T10:30:36;98181.06;;;7.06;70.66
21129;BME280;10722;51.910;8.352;2024-02-23T10:33:23;98169.97;;;7.03;69.93
21129;BME280;10722;51.910;8.352;2024-02-23T10:36:08;98157.13;;;7.04;69.69
21129;BME280;10722;51.910;8.352;2024-02-23T10:38:56;98163.91;;;7.08;69.71
21129;BME280;10722;51.910;8.352;2024-02-23T10:41:57;98178.47;;;7.12;70.07
21129;BME280;10722;51.910;8.352;2024-02-23T10:44:42;98166.38;;;7.21;69.75
21129;BME280;10722;51.910;8.352;2024-02-23T10:47:28;98165.41;;;7.32;69.30
21129;BME280;10722;51.910;8.352;2024-02-23T10:50:17;98141.38;;;7.32;69.06
21129;BME280;10722;51.910;8.352;2024-02-23T10:53:04;98146.50;;;7.38;68.91
21129;BME280;10722;51.910;8.352;2024-02-23T10:55:52;98166.81;;;7.59;69.27
21129;BME280;10722;51.910;8.352;2024-02-23T10:58:40;98149.78;;;7.49;68.88
21129;BME280;10722;51.910;8.352;2024-02-23T11:01:26;98144.53;;;7.58;69.20
21129;BME280;10722;51.910;8.352;2024-02-23T11:04:11;98148.75;;;7.64;68.85
21129;BME280;10722;51.910;8.352;2024-02-23T11:06:56;98166.66;;;7.75;69.04
21129;BME280;10722;51.910;8.352;2024-02-23T11:09:42;98167.53;;;7.71;68.88
21129;BME280;10722;51.910;8.352;2024-02-23T11:12:29;98155.59;;;7.67;68.88
21129;BME280;10722;51.910;8.352;2024-02-23T11:15:28;98152.09;;;7.71;68.76
21129;BME280;10722;51.910;8.352;2024-02-23T11:18:42;98133.19;;;7.73;68.14
21129;BME280;10722;51.910;8.352;2024-02-23T11:21:34;98157.13;;;7.83;68.50
21129;BME280;10722;51.910;8.352;2024-02-23T11:24:19;98129.72;;;7.77;68.53
21129;BME280;10722;51.910;8.352;2024-02-23T11:27:04;98145.19;;;7.77;68.09
21129;BME280;10722;51.910;8.352;2024-02-23T11:29:59;98128.91;;;7.75;68.40
21129;BME280;10722;51.910;8.352;2024-02-23T11:32:46;98128.91;;;7.75;67.77
21129;BME280;10722;51.910;8.352;2024-02-23T11:35:31;98134.81;;;7.82;68.25
21129;BME280;10722;51.910;8.352;2024-02-23T11:38:16;98149.41;;;7.83;68.81
21129;BME280;10722;51.910;8.352;2024-02-23T11:41:02;98139.09;;;7.81;68.42
21129;BME280;10722;51.910;8.352;2024-02-23T11:43:47;98151.97;;;7.81;68.49
21129;BME280;10722;51.910;8.352;2024-02-23T11:46:32;98169.06;;;7.87;68.64
21129;BME280;10722;51.910;8.352;2024-02-23T11:49:17;98160.50;;;7.86;68.64
21129;BME280;10722;51.910;8.352;2024-02-23T11:52:03;98151.88;;;7.89;68.47
21129;BME280;10722;51.910;8.352;2024-02-23T11:54:48;98131.38;;;7.81;67.87
21129;BME280;10722;51.910;8.352;2024-02-23T11:57:34;98157.03;;;7.89;68.00
21129;BME280;10722;51.910;8.352;2024-02-23T12:00:32;98138.97;;;7.91;67.99
21129;BME280;10722;51.910;8.352;2024-02-23T12:03:17;98166.28;;;8.02;68.83
21129;BME280;10722;51.910;8.352;2024-02-23T12:06:02;98157.59;;;8.11;68.23
21129;BME280;10722;51.910;8.352;2024-02-23T12:08:48;98150.81;;;8.05;68.10
21129;BME280;10722;51.910;8.352;2024-02-23T12:11:34;98138.09;;;7.95;67.07
21129;BME280;10722;51.910;8.352;2024-02-23T12:14:19;98100.22;;;8.01;66.95
21129;BME280;10722;51.910;8.352;2024-02-23T12:17:04;98113.97;;;8.00;67.07
21129;BME280;10722;51.910;8.352;2024-02-23T12:19:50;98119.09;;;8.02;67.33
21129;BME280;10722;51.910;8.352;2024-02-23T12:22:40;98083.88;;;8.02;66.29
21129;BME280;10722;51.910;8.352;2024-02-23T12:25:25;98094.16;;;8.05;66.45
21129;BME280;10722;51.910;8.352;2024-02-23T12:28:10;98089.72;;;8.17;65.89
21129;BME280;10722;51.910;8.352;2024-02-23T12:31:13;98117.22;;;8.15;66.95
21129;BME280;10722;51.910;8.352;2024-02-23T12:33:58;98116.16;;;8.26;66.53
21129;BME280;10722;51.910;8.352;2024-02-23T12:36:46;98104.06;;;8.31;65.95
21129;BME280;10722;51.910;8.352;2024-02-23T12:39:31;98098.47;;;8.61;65.69
21129;BME280;10722;51.910;8.352;2024-02-23T12:42:16;98098.06;;;8.85;65.22
21129;BME280;10722;51.910;8.352;2024-02-23T12:45:01;98086.31;;;8.69;65.23
21129;BME280;10722;51.910;8.352;2024-02-23T12:47:45;98060.84;;;8.52;65.03
21129;BME280;10722;51.910;8.352;2024-02-23T12:50:31;98067.59;;;8.59;64.68
21129;BME280;10722;51.910;8.352;2024-02-23T12:53:37;98073.91;;;8.38;64.92
21129;BME280;10722;51.910;8.352;2024-02-23T12:56:22;98103.97;;;8.38;65.59
21129;BME280;10722;51.910;8.352;2024-02-23T12:59:07;98150.31;;;8.42;66.79
21129;BME280;10722;51.910;8.352;2024-02-23T13:01:52;98138.38;;;8.35;66.84
21129;BME280;10722;51.910;8.352;2024-02-23T13:04:38;98167.53;;;8.40;67.76
21129;BME280;10722;51.910;8.352;2024-02-23T13:07:23;98155.59;;;8.30;66.70
21129;BME280;10722;51.910;8.352;2024-02-23T13:10:08;98111.81;;;8.30;65.76
21129;BME280;10722;51.910;8.352;2024-02-23T13:12:53;98108.38;;;8.31;65.62
21129;BME280;10722;51.910;8.352;2024-02-23T13:15:38;98096.31;;;8.33;65.14
21129;BME280;10722;51.910;8.352;2024-02-23T13:18:23;98093.69;;;8.36;65.26
21129;BME280;10722;51.910;8.352;2024-02-23T13:21:09;98092.81;;;8.40;65.31
21129;BME280;10722;51.910;8.352;2024-02-23T13:23:54;98076.41;;;8.44;64.78
21129;BME280;10722;51.910;8.352;2024-02-23T13:26:39;98111.56;;;8.48;65.81
21129;BME280;10722;51.910;8.352;2024-02-23T13:29:24;98101.31;;;8.45;65.21
21129;BME280;10722;51.910;8.352;2024-02-23T13:32:09;98109.91;;;8.44;65.38
21129;BME280;10722;51.910;8.352;2024-02-23T13:34:57;98119.41;;;8.41;65.84
21129;BME280;10722;51.910;8.352;2024-02-23T13:37:42;98105.69;;;8.39;65.56
21129;BME280;10722;51.910;8.352;2024-02-23T13:40:27;98141.78;;;8.37;66.46
21129;BME280;10722;51.910;8.352;2024-02-23T13:43:12;98142.66;;;8.39;66.65
21129;BME280;10722;51.910;8.352;2024-02-23T13:45:57;98144.28;;;8.42;66.16
21129;BME280;10722;51.910;8.352;2024-02-23T13:48:42;98158.94;;;8.38;66.29
21129;BME280;10722;51.910;8.352;2024-02-23T13:51:28;98182.97;;;8.40;67.44
21129;BME280;10722;51.910;8.352;2024-02-23T13:54:13;98197.50;;;8.46;67.67
21129;BME280;10722;51.910;8.352;2024-02-23T13:56:57;98211.28;;;8.45;67.70
21129;BME280;10722;51.910;8.352;2024-02-23T13:59:43;98208.56;;;8.54;67.71
21129;BME280;10722;51.910;8.352;2024-02-23T14:02:27;98211.22;;;8.46;67.43
21129;BME280;10722;51.910;8.352;2024-02-23T14:05:13;98215.69;;;8.34;67.85
21129;BME280;10722;51.910;8.352;2024-02-23T14:07:58;98203.69;;;8.31;67.38
21129;BME280;10722;51.910;8.352;2024-02-23T14:10:43;98206.22;;;8.32;67.57
21129;BME280;10722;51.910;8.352;2024-02-23T14:13:28;98191.59;;;8.39;67.09
21129;BME280;10722;51.910;8.352;2024-02-23T14:16:13;98202.72;;;8.38;67.32
21129;BME280;10722;51.910;8.352;2024-02-23T14:19:00;98186.44;;;8.39;66.90
21129;BME280;10722;51.910;8.352;2024-02-23T14:21:45;98211.28;;;8.43;67.46
21129;BME280;10722;51.910;8.352;2024-02-23T14:24:30;98200.13;;;8.41;66.81
21129;BME280;10722;51.910;8.352;2024-02-23T14:27:15;98206.91;;;8.48;67.03
21129;BME280;10722;51.910;8.352;2024-02-23T14:30:00;98183.63;;;8.53;66.67
21129;BME280;10722;51.910;8.352;2024-02-23T14:32:45;98208.44;;;8.62;67.08
21129;BME280;10722;51.910;8.352;2024-02-23T14:35:32;98194.78;;;8.57;66.40
21129;BME280;10722;51.910;8.352;2024-02-23T14:38:17;98184.38;;;8.61;65.54
21129;BME280;10722;51.910;8.352;2024-02-23T14:41:02;98205.88;;;8.60;66.73
21129;BME280;10722;51.910;8.352;2024-02-23T14:43:47;98219.94;;;8.39;67.41
21129;BME280;10722;51.910;8.352;2024-02-23T14:46:32;98249.19;;;8.32;67.94
21129;BME280;10722;51.910;8.352;2024-02-23T14:49:18;98258.78;;;8.21;68.85